Time;durP1;ratioP1;P1;durP2;ratioP2;P2;SDS_P1;SDS_P2;PMS_P1;PMS_P2;Temp;Humidity;BMP_temperature;BMP_pressure;BME280_temperature;BME280_humidity;BME280_pressure;Samples;Min_cycle;Max_cycle;Signal;HPM_P1;HPM_P2
2023/07/21 00:01:46;;;;;;;4.85;2.90;;;;;;;22.42;49.82;94367.59;4953842;28;20225;-88
2023/07/21 00:04:20;;;;;;;3.72;2.83;;;;;;;22.37;49.72;94358.72;4939957;29;20225;-88
2023/07/21 00:06:56;;;;;;;4.63;2.65;;;;;;;22.33;49.32;94344.59;4954645;29;20184;-91
2023/07/21 00:09:22;;;;;;;3.10;2.45;;;;;;;22.32;49.52;94355.41;4954778;29;20208;-90
2023/07/21 00:11:52;;;;;;;4.47;2.70;;;;;;;22.34;49.44;94348.78;4954409;29;20232;-89
2023/07/21 00:14:31;;;;;;;5.00;2.58;;;;;;;22.47;49.27;94334.22;4954542;29;20655;-89
2023/07/21 00:17:04;;;;;;;4.85;2.83;;;;;;;22.48;49.37;94343.66;4953895;29;20205;-90
2023/07/21 00:19:34;;;;;;;2.50;2.30;;;;;;;22.54;49.60;94339.09;4952751;29;20228;-90
2023/07/21 00:22:08;;;;;;;6.07;2.92;;;;;;;22.54;49.17;94326.78;4954115;28;20252;-90
2023/07/21 00:24:39;;;;;;;3.13;2.83;;;;;;;22.49;49.09;94336.56;4954347;29;20228;-90
2023/07/21 00:27:17;;;;;;;5.43;2.60;;;;;;;22.50;49.19;94338.13;4954065;29;20663;-90
2023/07/21 00:29:52;;;;;;;3.65;2.67;;;;;;;22.44;49.51;94342.66;4954550;29;20201;-90
2023/07/21 00:32:23;;;;;;;3.60;2.72;;;;;;;22.47;49.50;94343.94;4954268;28;20338;-89
2023/07/21 00:35:02;;;;;;;3.08;2.63;;;;;;;22.33;49.61;94352.47;4953002;29;20219;-89
2023/07/21 00:37:35;;;;;;;2.90;2.60;;;;;;;22.21;49.76;94362.56;4948813;29;20247;-89
2023/07/21 00:40:09;;;;;;;2.80;2.60;;;;;;;22.22;49.70;94366.75;4954192;29;20203;-90
2023/07/21 00:42:38;;;;;;;3.40;3.10;;;;;;;22.24;50.13;94372.50;4937410;29;20239;-90
2023/07/21 00:45:19;;;;;;;3.95;2.58;;;;;;;22.22;50.39;94377.25;4954261;29;20692;-90
2023/07/21 00:47:54;;;;;;;3.22;2.42;;;;;;;22.15;50.38;94368.94;4953864;29;20247;-89
2023/07/21 00:50:22;;;;;;;3.25;2.78;;;;;;;22.10;50.42;94376.88;4952834;29;20216;-89
2023/07/21 00:52:53;;;;;;;6.88;3.40;;;;;;;22.10;50.64;94386.56;4953185;28;20216;-91
2023/07/21 00:55:25;;;;;;;3.70;2.50;;;;;;;22.14;49.98;94363.97;4953747;29;20231;-89
2023/07/21 00:58:07;;;;;;;4.00;2.80;;;;;;;22.12;50.31;94372.13;4953739;29;20217;-89
2023/07/21 01:00:43;;;;;;;4.78;2.55;;;;;;;22.19;50.24;94366.53;4934541;29;20205;-90
2023/07/21 01:03:18;;;;;;;4.13;2.65;;;;;;;22.19;50.24;94382.25;4932523;29;20659;-88
2023/07/21 01:05:50;;;;;;;3.78;2.40;;;;;;;22.19;50.32;94371.78;4948293;29;20224;-90
2023/07/21 01:08:26;;;;;;;3.72;3.00;;;;;;;22.19;50.36;94387.50;4953644;29;20211;-90
2023/07/21 01:10:53;;;;;;;4.72;3.25;;;;;;;22.23;50.31;94376.19;4945696;29;20575;-88
2023/07/21 01:13:22;;;;;;;4.15;2.90;;;;;;;22.25;50.27;94379.31;4934225;29;20400;-89
2023/07/21 01:15:57;;;;;;;5.53;3.17;;;;;;;22.17;50.46;94384.38;4933928;29;20678;-89
2023/07/21 01:18:26;;;;;;;3.78;2.80;;;;;;;22.12;51.05;94387.84;4934092;29;20233;-89
2023/07/21 01:21:12;;;;;;;4.43;3.33;;;;;;;21.97;51.03;94385.31;4933285;29;20229;-90
2023/07/21 01:23:51;;;;;;;3.25;2.95;;;;;;;21.94;51.16;94393.75;4951321;29;20224;-89
2023/07/21 01:26:26;;;;;;;3.88;2.90;;;;;;;21.92;51.35;94401.13;4953361;29;20288;-89
2023/07/21 01:28:55;;;;;;;3.08;2.78;;;;;;;21.95;51.11;94385.59;4953350;29;20216;-91
2023/07/21 01:31:23;;;;;;;4.18;2.67;;;;;;;21.86;51.29;94387.28;4953450;28;20710;-90
2023/07/21 01:33:51;;;;;;;3.70;2.78;;;;;;;21.81;51.67;94392.56;4946670;29;20228;-89
2023/07/21 01:36:24;;;;;;;3.28;2.58;;;;;;;21.77;51.95;94402.00;4940264;29;20233;-89
2023/07/21 01:39:04;;;;;;;4.97;3.10;;;;;;;21.72;52.51;94417.81;4944421;29;20225;-90
2023/07/21 01:41:37;;;;;;;3.30;3.00;;;;;;;21.72;52.13;94425.66;4952334;28;20236;-89
2023/07/21 01:44:09;;;;;;;3.63;3.08;;;;;;;21.64;52.37;94439.31;4953178;29;20255;-89
2023/07/21 01:46:39;;;;;;;3.22;2.90;;;;;;;21.57;52.76;94452.72;4952415;29;20304;-89
2023/07/21 01:49:20;;;;;;;4.50;3.10;;;;;;;21.50;53.36;94475.84;4952336;29;20293;-89
2023/07/21 01:51:52;;;;;;;4.78;3.08;;;;;;;21.48;53.90;94495.50;4952520;28;20228;-88
2023/07/21 01:54:26;;;;;;;3.78;3.15;;;;;;;21.54;53.29;94476.88;4950689;29;20219;-88
2023/07/21 01:57:07;;;;;;;3.63;3.25;;;;;;;21.67;53.62;94493.81;4952104;29;20209;-89
2023/07/21 01:59:37;;;;;;;3.55;3.05;;;;;;;21.70;53.72;94490.66;4952678;29;20209;-89
2023/07/21 02:02:04;;;;;;;4.68;2.92;;;;;;;21.75;53.81;94492.44;4952898;28;20702;-89
2023/07/21 02:04:31;;;;;;;5.82;3.20;;;;;;;21.79;53.46;94490.84;4952079;29;20216;-90
2023/07/21 02:06:57;;;;;;;4.55;3.13;;;;;;;21.83;54.31;94507.59;4952503;29;20255;-89
2023/07/21 02:09:24;;;;;;;3.40;2.83;;;;;;;21.90;53.99;94500.19;4952377;29;20603;-90
2023/07/21 02:11:56;;;;;;;5.57;3.10;;;;;;;21.92;53.80;94498.88;4976353;23;20241;-92
2023/07/21 02:14:27;;;;;;;3.85;3.33;;;;;;;21.89;54.42;94517.78;4932978;29;20272;-89
2023/07/21 02:17:00;;;;;;;3.22;2.85;;;;;;;21.79;54.71;94538.00;4933044;29;20567;-89
2023/07/21 02:19:33;;;;;;;3.50;3.05;;;;;;;21.73;54.59;94537.28;4932572;29;20239;-89
2023/07/21 02:22:03;;;;;;;3.92;3.22;;;;;;;21.65;54.78;94543.06;4931843;29;20222;-89
2023/07/21 02:24:32;;;;;;;3.45;3.10;;;;;;;21.62;55.25;94551.47;4940215;29;20243;-90
2023/07/21 02:27:01;;;;;;;4.70;3.13;;;;;;;21.55;55.13;94562.22;4955592;28;20211;-90
2023/07/21 02:29:39;;;;;;;12.35;11.00;;;;;;;21.55;55.76;94570.09;4961543;28;20255;-90
2023/07/21 02:32:10;;;;;;;6.18;4.38;;;;;;;21.34;56.50;94602.69;4941060;29;20240;-89
2023/07/21 02:34:44;;;;;;;3.72;3.42;;;;;;;21.36;56.40;94605.78;4933016;29;20185;-89
2023/07/21 02:37:19;;;;;;;5.55;3.78;;;;;;;21.36;56.34;94600.56;4932850;29;20277;-90
2023/07/21 02:39:46;;;;;;;5.50;3.60;;;;;;;21.38;56.68;94608.94;4933202;29;20736;-89
2023/07/21 02:42:20;;;;;;;4.55;3.30;;;;;;;21.35;56.59;94612.09;4933735;28;20229;-89
2023/07/21 02:45:06;;;;;;;3.70;3.30;;;;;;;21.35;56.63;94615.50;4968250;28;20220;-90
2023/07/21 02:47:33;;;;;;;4.05;3.55;;;;;;;21.32;57.05;94628.34;4970326;28;20314;-89
2023/07/21 02:50:05;;;;;;;4.20;3.25;;;;;;;21.32;57.07;94625.72;4970950;28;20207;-90
2023/07/21 02:52:42;;;;;;;3.42;3.13;;;;;;;21.14;58.31;94674.19;4970617;28;20243;-90
2023/07/21 02:55:12;;;;;;;5.55;3.40;;;;;;;21.17;58.27;94670.22;4970806;28;20630;-89
2023/07/21 02:57:39;;;;;;;4.10;3.50;;;;;;;21.15;58.25;94672.34;4965609;28;20197;-89
2023/07/21 03:00:23;;;;;;;;;;;;;;;;;;;;;
2023/07/21 03:02:53;;;;;;;4.25;3.28;;;;;;;21.25;57.86;94660.03;4932124;29;20220;-90
2023/07/21 03:05:23;;;;;;;3.70;2.85;;;;;;;21.20;58.34;94662.66;4933847;29;20227;-90
2023/07/21 03:07:55;;;;;;;5.40;3.03;;;;;;;21.13;58.12;94661.34;4932530;29;20577;-90
2023/07/21 03:10:27;;;;;;;3.53;2.83;;;;;;;21.08;57.97;94654.28;4932625;29;20280;-89
2023/07/21 03:13:04;;;;;;;3.95;3.38;;;;;;;21.05;57.69;94639.09;4932043;29;20256;-89
2023/07/21 03:15:36;;;;;;;3.42;2.97;;;;;;;21.07;57.85;94654.53;4944187;28;20729;-89
2023/07/21 03:18:06;;;;;;;3.63;2.90;;;;;;;21.04;57.94;94653.25;4964720;28;20314;-89
2023/07/21 03:20:32;;;;;;;5.35;3.08;;;;;;;21.02;58.12;94676.25;4971157;28;20291;-90
2023/07/21 03:23:01;;;;;;;3.70;3.30;;;;;;;20.99;58.11;94668.94;4962653;28;20785;-89
2023/07/21 03:25:30;;;;;;;5.78;3.20;;;;;;;21.05;57.71;94644.34;4953016;29;20205;-90
2023/07/21 03:27:59;;;;;;;3.88;3.20;;;;;;;21.09;57.51;94641.97;4947140;29;20220;-90
2023/07/21 03:33:10;;;;;;;3.20;2.90;;;;;;;20.95;57.68;94642.53;4992009;23;20289;-89
2023/07/21 03:35:37;;;;;;;4.93;3.10;;;;;;;20.84;57.61;94642.78;4955038;29;20204;-91
2023/07/21 03:38:06;;;;;;;3.22;3.00;;;;;;;20.78;57.79;94643.88;4954930;29;20265;-90
2023/07/21 03:40:43;;;;;;;3.60;3.30;;;;;;;20.78;57.37;94623.72;4955202;29;20213;-90
2023/07/21 03:43:16;;;;;;;7.68;3.63;;;;;;;20.70;57.09;94611.16;4935795;29;20727;-89
2023/07/21 03:45:50;;;;;;;4.38;3.85;;;;;;;20.72;56.88;94610.91;4935100;29;20224;-89
2023/07/21 03:48:21;;;;;;;5.88;3.53;;;;;;;20.67;57.63;94620.31;4931966;29;20216;-89
2023/07/21 03:50:51;;;;;;;9.80;3.75;;;;;;;20.75;57.02;94611.16;4930252;29;20245;-90
2023/07/21 03:53:17;;;;;;;3.53;3.22;;;;;;;20.80;56.50;94595.44;4934108;29;20233;-88
2023/07/21 03:55:44;;;;;;;4.20;3.80;;;;;;;20.86;56.80;94593.59;4933824;29;20244;-89
2023/07/21 03:58:10;;;;;;;3.83;3.50;;;;;;;20.74;57.29;94608.81;4933795;29;20217;-86
2023/07/21 04:00:39;;;;;;;3.88;3.55;;;;;;;20.59;57.80;94635.75;4933807;29;20252;-88
2023/07/21 04:03:07;;;;;;;5.93;3.55;;;;;;;20.53;57.84;94645.44;4932612;29;20659;-86
2023/07/21 04:05:33;;;;;;;3.90;3.33;;;;;;;20.60;58.10;94653.00;4933379;29;20201;-86
2023/07/21 04:08:00;;;;;;;5.60;3.53;;;;;;;20.66;57.72;94637.06;4933458;29;20213;-86
2023/07/21 04:10:26;;;;;;;6.47;3.53;;;;;;;20.53;58.17;94642.03;4933391;29;20241;-87
2023/07/21 04:12:53;;;;;;;4.35;3.35;;;;;;;20.32;58.90;94664.72;4932892;29;20315;-86
2023/07/21 04:15:19;;;;;;;4.55;3.40;;;;;;;20.32;59.04;94689.03;4933620;29;20213;-87
2023/07/21 04:17:46;;;;;;;3.88;3.25;;;;;;;20.40;59.09;94677.31;4933014;29;20566;-87
2023/07/21 04:20:14;;;;;;;6.47;3.38;;;;;;;20.54;58.32;94662.69;4931717;29;20232;-86
2023/07/21 04:22:43;;;;;;;4.93;3.80;;;;;;;20.58;58.68;94670.81;4929755;29;20249;-87
2023/07/21 04:25:15;;;;;;;6.50;3.30;;;;;;;20.58;59.29;94694.34;4922830;29;20216;-87
2023/07/21 04:27:42;;;;;;;4.00;3.60;;;;;;;20.75;58.66;94679.19;4933033;29;20189;-87
2023/07/21 04:30:09;;;;;;;3.92;3.42;;;;;;;20.88;58.42;94676.03;4933120;29;20225;-87
2023/07/21 04:32:38;;;;;;;4.53;3.22;;;;;;;21.02;58.55;94673.66;4932817;29;20233;-87
2023/07/21 04:35:08;;;;;;;4.10;3.13;;;;;;;21.01;59.16;94695.63;4931970;29;20565;-86
2023/07/21 04:37:38;;;;;;;6.53;3.70;;;;;;;21.14;58.81;94691.72;4924535;29;20627;-87
2023/07/21 04:40:06;;;;;;;3.97;3.58;;;;;;;21.08;60.05;94724.16;4933432;29;20221;-87
2023/07/21 04:42:33;;;;;;;3.40;3.10;;;;;;;21.11;59.62;94721.03;4914818;29;20237;-85
2023/07/21 04:45:05;;;;;;;3.75;3.40;;;;;;;21.08;60.35;94755.59;4932642;29;20244;-86
2023/07/21 04:47:31;;;;;;;5.30;3.10;;;;;;;21.12;60.48;94760.03;4932432;29;20577;-86
2023/07/21 04:49:58;;;;;;;4.35;3.47;;;;;;;21.15;60.10;94743.03;4932935;29;20675;-86
2023/07/21 04:52:24;;;;;;;3.92;3.50;;;;;;;21.21;59.85;94734.91;4930301;29;20233;-86
2023/07/21 04:54:52;;;;;;;4.00;3.22;;;;;;;21.25;60.34;94748.28;4932503;29;20202;-86
2023/07/21 04:57:18;;;;;;;4.00;3.60;;;;;;;21.32;60.42;94749.59;4933256;29;20209;-86
2023/07/21 04:59:46;;;;;;;5.38;3.30;;;;;;;21.40;60.08;94761.34;4932512;29;20224;-85
2023/07/21 05:02:12;;;;;;;4.60;3.47;;;;;;;21.43;60.45;94773.91;4932019;29;20232;-86
2023/07/21 05:04:38;;;;;;;5.07;3.50;;;;;;;21.46;60.61;94776.00;4931422;29;20197;-87
2023/07/21 05:07:05;;;;;;;5.25;3.65;;;;;;;21.48;61.15;94813.22;4929394;29;20676;-86
2023/07/21 05:09:32;;;;;;;3.97;3.45;;;;;;;21.52;60.76;94795.13;4930504;29;20201;-87
2023/07/21 05:12:01;;;;;;;4.68;3.90;;;;;;;21.45;61.41;94816.34;4925723;29;20217;-85
2023/07/21 05:14:29;;;;;;;5.30;3.50;;;;;;;21.45;61.01;94808.50;4931723;29;20209;-85
2023/07/21 05:16:56;;;;;;;3.50;3.20;;;;;;;21.43;60.81;94815.81;4933416;29;20743;-86
2023/07/21 05:19:22;;;;;;;4.57;3.60;;;;;;;21.38;61.08;94805.34;4930887;29;20229;-86
2023/07/21 05:21:49;;;;;;;4.10;3.70;;;;;;;21.33;61.14;94818.47;4933141;29;20284;-86
2023/07/21 05:24:19;;;;;;;5.88;4.05;;;;;;;21.34;61.42;94825.25;4929622;29;20206;-86
2023/07/21 05:26:46;;;;;;;5.53;4.63;;;;;;;21.41;60.98;94823.16;4928654;29;20201;-87
2023/07/21 05:29:17;;;;;;;14.88;13.38;;;;;;;21.45;60.93;94807.69;4933829;29;20194;-88
2023/07/21 05:31:45;;;;;;;8.02;7.22;;;;;;;21.39;61.05;94814.78;4934277;29;20312;-86
2023/07/21 05:34:13;;;;;;;5.85;4.75;;;;;;;21.28;61.58;94828.94;4933893;29;20290;-86
2023/07/21 05:36:40;;;;;;;4.90;4.45;;;;;;;21.32;61.56;94822.13;4933328;29;20202;-85
2023/07/21 05:39:06;;;;;;;4.57;4.18;;;;;;;21.30;61.82;94824.22;4933313;29;20225;-86
2023/07/21 05:41:33;;;;;;;6.72;4.07;;;;;;;21.06;63.31;94857.13;4932401;29;20583;-85
2023/07/21 05:44:02;;;;;;;5.07;4.07;;;;;;;21.06;63.70;94868.41;4932993;29;20582;-90
2023/07/21 05:46:31;;;;;;;5.82;3.75;;;;;;;21.07;63.94;94861.34;4931390;29;20201;-90
2023/07/21 05:48:58;;;;;;;3.72;3.35;;;;;;;21.15;63.40;94845.13;4932231;29;20193;-89
2023/07/21 05:51:38;;;;;;;4.65;3.80;;;;;;;21.16;63.00;94841.47;4931505;29;20233;-90
2023/07/21 05:54:04;;;;;;;4.10;3.50;;;;;;;21.17;63.73;94856.88;4928744;29;20208;-90
2023/07/21 05:56:54;;;;;;;5.90;3.45;;;;;;;21.29;63.32;94836.53;4927153;29;20220;-90
2023/07/21 05:59:21;;;;;;;4.18;3.70;;;;;;;21.39;62.78;94812.16;4923041;29;20220;-91
2023/07/21 06:01:51;;;;;;;4.15;3.75;;;;;;;21.45;62.76;94823.41;4930979;29;20249;-88
2023/07/21 06:04:20;;;;;;;4.00;3.60;;;;;;;21.58;63.21;94835.97;4929432;29;20208;-90
2023/07/21 06:06:47;;;;;;;3.50;3.05;;;;;;;21.70;63.23;94844.38;4908925;29;20205;-89
2023/07/21 06:09:14;;;;;;;5.03;3.70;;;;;;;21.69;63.01;94822.63;4916737;29;20210;-89
2023/07/21 06:11:40;;;;;;;6.90;3.58;;;;;;;21.67;63.06;94824.72;4927027;29;20229;-89
2023/07/21 06:14:07;;;;;;;5.72;3.55;;;;;;;21.70;62.46;94795.38;4926906;29;20698;-89
2023/07/21 06:16:34;;;;;;;4.40;3.58;;;;;;;21.79;61.79;94782.50;4927896;29;20209;-88
2023/07/21 06:19:02;;;;;;;4.90;3.60;;;;;;;21.83;62.50;94796.63;4926520;29;20232;-89
2023/07/21 06:21:28;;;;;;;5.63;3.65;;;;;;;21.88;62.40;94812.38;4929578;29;20304;-89
2023/07/21 06:23:55;;;;;;;5.68;3.75;;;;;;;21.86;62.92;94830.19;4929823;29;20209;-89
2023/07/21 06:26:21;;;;;;;4.07;3.40;;;;;;;21.96;62.29;94809.19;4929747;29;20209;-89
2023/07/21 06:28:54;;;;;;;6.57;5.47;;;;;;;22.03;61.96;94804.47;4928641;29;20667;-89
2023/07/21 06:31:21;;;;;;;12.80;10.25;;;;;;;22.09;62.04;94799.22;4927382;29;20245;-89
2023/07/21 06:33:48;;;;;;;7.47;5.03;;;;;;;22.13;62.09;94789.78;4929814;29;20197;-90
2023/07/21 06:36:20;;;;;;;6.18;3.95;;;;;;;22.09;62.10;94797.41;4930506;29;20570;-89
2023/07/21 06:38:46;;;;;;;6.32;3.38;;;;;;;22.11;62.10;94794.50;4927194;29;20361;-90
2023/07/21 06:41:13;;;;;;;4.25;3.50;;;;;;;22.14;62.22;94791.31;4928975;29;20253;-88
2023/07/21 06:43:39;;;;;;;4.35;3.70;;;;;;;22.14;62.73;94807.06;4929671;29;20197;-89
2023/07/21 06:46:07;;;;;;;5.40;3.40;;;;;;;22.28;62.72;94808.06;4928970;29;20240;-89
2023/07/21 06:48:33;;;;;;;5.18;3.65;;;;;;;22.42;62.02;94800.41;4930194;29;20272;-89
2023/07/21 06:51:03;;;;;;;4.72;3.28;;;;;;;22.52;61.87;94788.00;4929974;29;20225;-89
2023/07/21 06:53:31;;;;;;;7.95;3.85;;;;;;;22.54;61.76;94779.88;4929960;29;20224;-90
2023/07/21 06:55:57;;;;;;;4.50;3.58;;;;;;;22.48;62.31;94809.81;4930138;29;20201;-89
2023/07/21 06:58:23;;;;;;;3.92;3.35;;;;;;;22.60;61.65;94779.59;4932577;29;20201;-89
2023/07/21 07:00:50;;;;;;;8.15;3.65;;;;;;;22.57;62.12;94795.06;4932446;29;20232;-89
2023/07/21 07:03:17;;;;;;;6.07;3.65;;;;;;;22.63;61.80;94791.38;4933730;29;20296;-89
2023/07/21 07:05:45;;;;;;;5.00;3.83;;;;;;;22.59;62.67;94813.97;4933850;29;20209;-88
2023/07/21 07:08:12;;;;;;;4.32;3.70;;;;;;;22.73;62.46;94807.06;4934081;29;20213;-89
2023/07/21 07:10:47;;;;;;;3.65;3.35;;;;;;;22.87;61.95;94792.31;4931899;29;20292;-89
2023/07/21 07:13:13;;;;;;;3.70;3.40;;;;;;;23.00;61.44;94769.91;4933553;29;20213;-88
2023/07/21 07:15:40;;;;;;;4.70;3.50;;;;;;;23.05;61.62;94778.53;4933684;29;20201;-89
2023/07/21 07:18:09;;;;;;;3.90;3.50;;;;;;;23.02;61.27;94773.84;4933634;29;20391;-89
2023/07/21 07:20:35;;;;;;;4.45;3.83;;;;;;;22.76;62.83;94822.25;4933102;29;20308;-89
2023/07/21 07:23:01;;;;;;;4.95;3.70;;;;;;;22.78;62.90;94830.69;4932332;29;20235;-88
2023/07/21 07:25:28;;;;;;;3.78;3.35;;;;;;;22.77;63.20;94823.88;4932119;29;20202;-89
2023/07/21 07:27:56;;;;;;;5.80;3.65;;;;;;;22.73;63.53;94841.16;4931654;29;20205;-89
2023/07/21 07:30:26;;;;;;;5.28;3.95;;;;;;;22.71;64.06;94859.03;4927629;29;20201;-89
2023/07/21 07:32:53;;;;;;;4.15;3.75;;;;;;;22.85;63.55;94839.06;4932579;29;20229;-88
2023/07/21 07:35:21;;;;;;;4.93;3.60;;;;;;;22.99;62.83;94824.25;4933712;29;20241;-87
2023/07/21 07:37:47;;;;;;;12.25;11.02;;;;;;;23.06;62.71;94829.22;4933992;29;20232;-88
2023/07/21 07:40:14;;;;;;;5.15;4.65;;;;;;;23.11;62.31;94796.88;4932966;29;20248;-88
2023/07/21 07:42:42;;;;;;;7.22;4.05;;;;;;;23.07;62.01;94807.94;4931167;29;20715;-88
2023/07/21 07:45:11;;;;;;;4.50;3.40;;;;;;;23.03;61.65;94787.75;4921939;29;20229;-87
2023/07/21 07:47:37;;;;;;;5.25;3.75;;;;;;;23.09;61.23;94790.03;4932813;29;20214;-87
2023/07/21 07:50:04;;;;;;;7.38;3.70;;;;;;;23.07;62.20;94805.31;4932301;29;20212;-87
2023/07/21 07:52:31;;;;;;;4.35;3.60;;;;;;;23.12;61.28;94783.47;4931664;29;20249;-88
2023/07/21 07:54:57;;;;;;;5.28;3.65;;;;;;;23.19;60.95;94756.91;4933163;29;20237;-87
2023/07/21 07:57:25;;;;;;;4.53;3.40;;;;;;;23.19;60.45;94755.06;4933245;29;20208;-88
2023/07/21 07:59:52;;;;;;;5.40;3.50;;;;;;;23.14;60.42;94749.84;4926515;29;20226;-89
2023/07/21 08:02:20;;;;;;;3.65;3.30;;;;;;;23.15;60.01;94740.09;4933022;29;20233;-89
2023/07/21 08:04:46;;;;;;;3.83;3.42;;;;;;;23.17;60.47;94740.63;4930609;29;20206;-90
2023/07/21 08:07:13;;;;;;;8.52;3.33;;;;;;;23.09;59.94;94737.53;4928125;29;20676;-89
2023/07/21 08:09:39;;;;;;;5.80;3.58;;;;;;;23.16;60.04;94733.81;4918324;29;20223;-88
2023/07/21 08:12:06;;;;;;;6.07;3.72;;;;;;;23.18;59.58;94734.31;4930846;29;20244;-89
2023/07/21 08:14:32;;;;;;;6.95;3.90;;;;;;;23.04;59.25;94700.81;4931839;29;20198;-89
2023/07/21 08:17:03;;;;;;;3.50;3.20;;;;;;;23.05;58.91;94694.50;4930302;29;20205;-88
2023/07/21 08:19:32;;;;;;;4.93;3.33;;;;;;;23.01;58.28;94677.75;4925596;29;20222;-88
2023/07/21 08:22:04;;;;;;;4.68;3.67;;;;;;;23.13;58.04;94676.56;4914664;29;20246;-88
2023/07/21 08:24:31;;;;;;;3.25;2.95;;;;;;;23.11;57.68;94663.72;4928006;29;20934;-89
2023/07/21 08:26:58;;;;;;;5.05;3.30;;;;;;;23.12;57.45;94656.63;4932219;29;20207;-91
2023/07/21 08:29:26;;;;;;;4.95;3.22;;;;;;;23.04;57.12;94645.69;4933649;29;20301;-89
2023/07/21 08:31:53;;;;;;;4.88;3.22;;;;;;;22.91;56.57;94620.06;4925539;29;20242;-89
2023/07/21 08:34:19;;;;;;;3.50;2.80;;;;;;;22.83;56.27;94597.03;4919972;29;20214;-89
2023/07/21 08:36:47;;;;;;;4.05;2.78;;;;;;;22.86;55.88;94600.97;4925592;29;20213;-89
2023/07/21 08:39:14;;;;;;;3.58;3.28;;;;;;;22.84;54.47;94550.59;4932584;29;20207;-87
2023/07/21 08:41:51;;;;;;;5.15;2.60;;;;;;;22.74;53.97;94517.31;4932804;29;20242;-89
2023/07/21 08:44:19;;;;;;;11.98;3.55;;;;;;;22.77;54.05;94522.03;4931844;29;20217;-89
2023/07/21 08:46:47;;;;;;;3.58;2.90;;;;;;;22.81;54.23;94545.88;4932815;29;20217;-89
2023/07/21 08:49:16;;;;;;;4.97;3.40;;;;;;;22.82;54.67;94571.06;4929250;29;21365;-90
2023/07/21 08:51:43;;;;;;;3.25;2.95;;;;;;;22.52;54.82;94593.09;4933059;29;20224;-89
2023/07/21 08:54:13;;;;;;;3.30;2.92;;;;;;;22.48;55.29;94611.22;4933310;29;20228;-90
2023/07/21 08:56:39;;;;;;;6.38;3.17;;;;;;;22.54;56.15;94638.97;4919906;29;20628;-89
2023/07/21 08:59:06;;;;;;;3.92;3.30;;;;;;;22.61;57.13;94681.44;4930748;29;20194;-89
2023/07/21 09:01:33;;;;;;;3.55;3.22;;;;;;;22.73;57.50;94708.09;4932540;29;20236;-89
2023/07/21 09:04:00;;;;;;;7.30;3.55;;;;;;;22.74;58.17;94741.16;4927421;29;20256;-89
2023/07/21 09:06:26;;;;;;;3.95;3.35;;;;;;;22.81;58.54;94751.41;4929894;29;20224;-88
2023/07/21 09:08:54;;;;;;;6.45;3.72;;;;;;;22.95;58.66;94767.31;4931135;29;20201;-86
2023/07/21 09:11:26;;;;;;;3.40;3.10;;;;;;;22.94;59.30;94792.00;4932871;29;20603;-86
2023/07/21 09:13:54;;;;;;;4.88;3.88;;;;;;;23.02;59.45;94799.31;4932430;29;20568;-86
2023/07/21 09:16:21;;;;;;;4.80;3.83;;;;;;;23.29;59.16;94788.31;4932069;29;20205;-86
2023/07/21 09:18:48;;;;;;;4.07;3.20;;;;;;;23.52;58.96;94774.47;4932101;29;20204;-86
2023/07/21 09:21:19;;;;;;;5.15;3.70;;;;;;;23.68;58.90;94780.38;4924206;29;20312;-87
2023/07/21 09:23:46;;;;;;;3.83;3.50;;;;;;;24.09;58.06;94741.28;4931617;29;20757;-86
2023/07/21 09:26:16;;;;;;;6.60;3.35;;;;;;;24.22;57.55;94714.31;4932353;29;20332;-85
2023/07/21 09:28:45;;;;;;;6.18;2.97;;;;;;;24.38;57.18;94693.84;4931674;29;20212;-87
2023/07/21 09:31:12;;;;;;;4.05;3.00;;;;;;;24.34;57.10;94679.69;4931911;29;20221;-87
2023/07/21 09:33:40;;;;;;;3.70;2.83;;;;;;;24.43;57.17;94668.25;4917275;29;20285;-86
2023/07/21 09:36:08;;;;;;;4.85;3.20;;;;;;;24.29;56.89;94666.59;4913136;29;20776;-86
2023/07/21 09:38:36;;;;;;;2.88;2.67;;;;;;;24.23;57.63;94678.25;4923842;29;20869;-88
2023/07/21 09:41:04;;;;;;;3.17;2.88;;;;;;;24.11;57.57;94684.69;4933049;29;20236;-87
2023/07/21 09:43:30;;;;;;;4.30;2.78;;;;;;;24.24;57.84;94691.16;4935321;29;20201;-86
2023/07/21 09:46:00;;;;;;;2.85;2.65;;;;;;;24.22;57.87;94693.25;4933871;29;20201;-87
2023/07/21 09:48:28;;;;;;;5.22;2.60;;;;;;;24.27;58.12;94703.72;4935448;29;20209;-86
2023/07/21 09:50:58;;;;;;;3.90;2.80;;;;;;;24.12;58.04;94701.25;4932710;29;20205;-88
2023/07/21 09:53:30;;;;;;;3.28;2.53;;;;;;;24.08;58.06;94705.53;4931885;29;20210;-87
2023/07/21 09:55:59;;;;;;;10.07;3.03;;;;;;;24.10;58.45;94714.69;4932607;29;20202;-88
2023/07/21 09:58:29;;;;;;;3.15;2.80;;;;;;;24.35;57.79;94702.31;4932947;29;20229;-86
2023/07/21 10:01:01;;;;;;;2.90;2.70;;;;;;;24.77;56.93;94667.22;4933246;29;20253;-86
2023/07/21 10:03:27;;;;;;;3.03;2.83;;;;;;;24.86;56.17;94627.81;4934171;29;20703;-86
2023/07/21 10:05:54;;;;;;;3.25;2.85;;;;;;;24.86;56.00;94625.19;4928038;29;20255;-86
2023/07/21 10:08:22;;;;;;;3.20;2.90;;;;;;;24.79;56.33;94628.22;4930896;29;20205;-87
2023/07/21 10:10:49;;;;;;;2.90;2.70;;;;;;;24.83;55.52;94615.22;4926989;29;20252;-87
2023/07/21 10:13:15;;;;;;;3.95;2.90;;;;;;;24.81;55.38;94610.28;4933575;29;20202;-86
2023/07/21 10:15:47;;;;;;;2.95;2.70;;;;;;;24.80;55.56;94616.63;4934476;29;20208;-86
2023/07/21 10:18:15;;;;;;;3.65;2.53;;;;;;;24.69;56.45;94639.69;4934544;29;20207;-86
2023/07/21 10:20:45;;;;;;;2.97;2.40;;;;;;;24.72;56.04;94643.59;4930194;29;20225;-87
2023/07/21 10:23:13;;;;;;;2.97;2.30;;;;;;;24.75;55.73;94640.38;4931462;29;20196;-87
2023/07/21 10:25:56;;;;;;;3.13;2.42;;;;;;;24.85;55.91;94624.41;4929222;29;20803;-86
2023/07/21 10:28:24;;;;;;;2.90;2.60;;;;;;;25.01;55.62;94612.59;4931489;29;20198;-86
2023/07/21 10:30:52;;;;;;;3.53;2.50;;;;;;;25.13;54.85;94593.66;4928334;29;20201;-87
2023/07/21 10:33:29;;;;;;;2.70;2.50;;;;;;;25.10;54.87;94589.75;4912516;29;20265;-87
2023/07/21 10:36:13;;;;;;;3.50;2.55;;;;;;;25.16;54.77;94566.75;4930178;29;20248;-86
2023/07/21 10:38:41;;;;;;;3.85;2.67;;;;;;;25.22;54.17;94562.13;4930313;29;20671;-87
2023/07/21 10:41:08;;;;;;;3.10;2.70;;;;;;;25.15;54.04;94552.00;4929385;29;20746;-87
2023/07/21 10:43:34;;;;;;;3.42;2.30;;;;;;;25.19;54.15;94546.94;4931347;29;20210;-87
2023/07/21 10:46:05;;;;;;;4.35;2.50;;;;;;;25.35;53.58;94516.56;4931831;29;20206;-88
2023/07/21 10:48:34;;;;;;;4.07;2.60;;;;;;;25.54;53.18;94501.41;4924170;29;20213;-86
2023/07/21 10:51:02;;;;;;;3.05;2.75;;;;;;;25.83;52.14;94468.63;4917313;29;20680;-87
2023/07/21 10:53:28;;;;;;;4.90;2.90;;;;;;;25.74;52.19;94427.16;4922791;29;20213;-87
2023/07/21 10:55:55;;;;;;;4.93;2.80;;;;;;;25.95;51.87;94411.63;4928486;29;20202;-88
2023/07/21 10:58:21;;;;;;;2.95;2.67;;;;;;;25.83;51.26;94387.66;4925201;29;20213;-90
2023/07/21 11:00:52;;;;;;;4.78;2.63;;;;;;;26.01;50.95;94362.91;4920106;29;20225;-87
2023/07/21 11:03:19;;;;;;;3.58;2.95;;;;;;;26.01;51.07;94351.59;4930353;29;20229;-89
2023/07/21 11:05:47;;;;;;;3.83;3.00;;;;;;;26.00;50.67;94353.44;4928560;29;20208;-87
2023/07/21 11:08:25;;;;;;;5.05;2.70;;;;;;;26.31;50.09;94324.44;4929948;29;20202;-87
2023/07/21 11:10:51;;;;;;;4.65;3.15;;;;;;;26.40;50.06;94327.88;4928323;29;20201;-88
2023/07/21 11:13:18;;;;;;;3.17;2.72;;;;;;;26.48;50.14;94307.88;4927585;29;20667;-87
2023/07/21 11:15:51;;;;;;;4.40;4.00;;;;;;;26.52;49.36;94279.00;4929622;29;20687;-87
2023/07/21 11:18:20;;;;;;;3.78;3.38;;;;;;;26.44;49.83;94296.38;4930704;29;20611;-88
2023/07/21 11:20:51;;;;;;;3.17;2.80;;;;;;;26.51;49.25;94295.91;4923473;29;20222;-88
2023/07/21 11:23:17;;;;;;;4.60;2.90;;;;;;;26.55;49.09;94270.47;4929171;29;20766;-88
2023/07/21 11:26:06;;;;;;;3.88;2.70;;;;;;;26.63;48.96;94265.19;4929663;29;20206;-88
2023/07/21 11:28:33;;;;;;;5.32;3.13;;;;;;;26.74;49.22;94265.66;4928198;29;20208;-88
2023/07/21 11:31:01;;;;;;;3.22;2.83;;;;;;;26.73;48.98;94283.38;4929208;29;20205;-87
2023/07/21 11:33:40;;;;;;;3.50;3.20;;;;;;;26.89;49.76;94275.00;4930330;29;20230;-88
2023/07/21 11:36:17;;;;;;;3.03;2.55;;;;;;;26.84;48.75;94254.78;4930123;29;20208;-89
2023/07/21 11:38:57;;;;;;;3.20;2.70;;;;;;;26.63;49.30;94262.53;4930280;29;20686;-87
2023/07/21 11:41:33;;;;;;;4.82;2.60;;;;;;;26.34;50.16;94291.38;4929999;29;20229;-87
2023/07/21 11:43:59;;;;;;;5.30;2.95;;;;;;;26.27;50.24;94320.03;4931792;29;20646;-88
2023/07/21 11:46:26;;;;;;;3.88;2.72;;;;;;;26.25;50.72;94346.72;4907933;29;20241;-86
2023/07/21 11:48:52;;;;;;;4.47;3.30;;;;;;;26.19;51.70;94371.69;4934257;29;20272;-87